createdAt,value
2022-10-05T00:04:55.227Z,1023.49
2022-10-05T00:10:02.362Z,1023.40
2022-10-05T00:15:09.554Z,1023.30
2022-10-05T00:20:16.849Z,1023.23
2022-10-05T00:25:24.045Z,1023.28
2022-10-05T00:30:31.294Z,1023.23
2022-10-05T00:35:38.534Z,1023.24
2022-10-05T00:40:45.750Z,1023.15
2022-10-05T00:45:53.050Z,1023.21
2022-10-05T00:51:00.293Z,1023.22
2022-10-05T00:56:07.534Z,1023.19
2022-10-05T01:01:14.824Z,1023.16
2022-10-05T01:06:21.966Z,1023.08
2022-10-05T01:11:29.134Z,1023.03
2022-10-05T01:16:36.461Z,1023.03
2022-10-05T01:21:43.756Z,1022.89
2022-10-05T01:26:50.988Z,1022.93
2022-10-05T01:31:58.494Z,1022.98
2022-10-05T01:37:05.737Z,1022.96
2022-10-05T01:42:12.964Z,1022.94
2022-10-05T01:47:20.256Z,1022.89
2022-10-05T01:52:27.685Z,1022.93
2022-10-05T01:57:34.790Z,1022.70
2022-10-05T02:02:42.112Z,1022.60
2022-10-05T02:07:49.424Z,1022.60
2022-10-05T02:12:56.658Z,1022.67
2022-10-05T02:18:03.900Z,1022.70
2022-10-05T02:23:11.156Z,1022.70
2022-10-05T02:28:19.057Z,1022.62
2022-10-05T02:33:26.167Z,1022.58
2022-10-05T02:38:33.401Z,1022.64
2022-10-05T02:43:40.625Z,1022.65
2022-10-05T02:48:47.800Z,1022.63
2022-10-05T02:53:55.040Z,1022.54
2022-10-05T02:59:02.250Z,1022.51
2022-10-05T03:04:09.425Z,1022.77
2022-10-05T03:09:16.635Z,1022.73
2022-10-05T03:14:23.893Z,1022.70
2022-10-05T03:19:31.153Z,1022.65
2022-10-05T03:24:38.398Z,1022.66
2022-10-05T03:29:45.599Z,1022.59
2022-10-05T03:34:52.902Z,1022.61
2022-10-05T03:40:00.203Z,1022.50
2022-10-05T03:45:07.347Z,1022.53
2022-10-05T03:50:14.541Z,1022.53
2022-10-05T03:55:21.765Z,1022.59
2022-10-05T04:00:28.952Z,1022.68
2022-10-05T04:05:36.154Z,1022.57
2022-10-05T04:10:43.415Z,1022.71
2022-10-05T04:15:50.720Z,1022.81
2022-10-05T04:20:57.898Z,1022.80
2022-10-05T04:26:05.158Z,1022.80
2022-10-05T04:31:12.400Z,1022.77
2022-10-05T04:36:19.574Z,1022.83
2022-10-05T04:41:26.814Z,1022.77
2022-10-05T04:46:34.070Z,1022.79
2022-10-05T04:51:41.213Z,1022.82
2022-10-05T04:56:48.935Z,1022.81
2022-10-05T05:01:55.812Z,1022.74
2022-10-05T05:07:03.005Z,1022.70
2022-10-05T05:12:10.270Z,1022.69
2022-10-05T05:17:17.435Z,1022.73
2022-10-05T05:22:24.674Z,1022.83
2022-10-05T05:27:31.868Z,1022.81
2022-10-05T05:32:39.052Z,1022.79
2022-10-05T05:37:46.251Z,1022.90
2022-10-05T05:42:53.478Z,1022.91
2022-10-05T05:48:00.672Z,1022.97
2022-10-05T05:53:07.883Z,1023.03
2022-10-05T05:58:15.126Z,1023.07
2022-10-05T06:03:22.591Z,1023.17
2022-10-05T06:08:29.600Z,1023.10
2022-10-05T06:13:36.836Z,1023.17
2022-10-05T06:18:44.055Z,1023.16
2022-10-05T06:23:51.370Z,1023.24
2022-10-05T06:28:58.579Z,1023.25
2022-10-05T06:34:06.038Z,1023.34
2022-10-05T06:39:13.299Z,1023.33
2022-10-05T06:44:20.619Z,1023.37
2022-10-05T06:49:27.782Z,1023.36
2022-10-05T06:54:35.055Z,1023.30
2022-10-05T06:59:42.525Z,1023.20
2022-10-05T07:04:49.605Z,1023.21
2022-10-05T07:09:56.758Z,1023.19
2022-10-05T07:15:05.274Z,1023.17
2022-10-05T07:20:12.508Z,1023.24
2022-10-05T07:25:19.769Z,1023.34
2022-10-05T07:30:27.028Z,1023.33
2022-10-05T07:35:34.235Z,1023.39
2022-10-05T07:40:41.509Z,1023.43
2022-10-05T07:45:48.825Z,1023.45
2022-10-05T07:50:55.943Z,1023.52
2022-10-05T07:56:03.095Z,1023.46
2022-10-05T08:01:10.316Z,1023.38
2022-10-05T08:06:17.500Z,1023.46
2022-10-05T08:11:24.752Z,1023.35
2022-10-05T08:16:31.963Z,1023.39
2022-10-05T08:21:39.190Z,1023.41
2022-10-05T08:26:46.358Z,1023.47
2022-10-05T08:31:53.629Z,1023.49
2022-10-05T08:37:00.799Z,1023.55
2022-10-05T08:42:07.982Z,1023.57
2022-10-05T08:47:15.201Z,1023.59
2022-10-05T08:52:22.390Z,1023.54
2022-10-05T08:57:29.593Z,1023.55
2022-10-05T09:02:36.889Z,1023.58
2022-10-05T09:07:44.003Z,1023.57
2022-10-05T09:12:51.180Z,1023.63
2022-10-05T09:17:58.430Z,1023.55
2022-10-05T09:23:05.627Z,1023.58
2022-10-05T09:28:12.928Z,1023.50
2022-10-05T09:33:20.056Z,1023.55
2022-10-05T09:38:27.226Z,1023.48
2022-10-05T09:43:34.446Z,1023.47
2022-10-05T09:48:41.694Z,1023.44
2022-10-05T09:53:48.841Z,1023.44
2022-10-05T09:58:55.980Z,1023.37
2022-10-05T10:04:03.148Z,1023.31
2022-10-05T10:09:10.352Z,1023.31
2022-10-05T10:14:17.550Z,1023.27
2022-10-05T10:19:24.811Z,1023.22
2022-10-05T10:24:32.035Z,1023.15
2022-10-05T10:29:39.306Z,1023.15
2022-10-05T10:34:46.533Z,1023.16
2022-10-05T10:39:53.901Z,1023.11
2022-10-05T10:45:01.132Z,1023.08
2022-10-05T10:50:08.340Z,1023.05
2022-10-05T10:55:15.502Z,1023.01
2022-10-05T11:00:22.698Z,1022.98
2022-10-05T11:05:29.967Z,1022.88
2022-10-05T11:10:37.192Z,1022.87
2022-10-05T11:15:44.475Z,1022.85
2022-10-05T11:20:51.792Z,1022.77
2022-10-05T11:25:58.993Z,1022.73
2022-10-05T11:31:06.353Z,1022.68
2022-10-05T11:36:14.265Z,1022.66
2022-10-05T11:41:21.433Z,1022.63
2022-10-05T11:46:28.735Z,1022.57
2022-10-05T11:51:35.900Z,1022.49
2022-10-05T11:56:43.076Z,1022.46
2022-10-05T12:01:50.316Z,1022.34
2022-10-05T12:06:57.700Z,1022.27
2022-10-05T12:12:04.874Z,1022.22
2022-10-05T12:17:12.130Z,1022.19
2022-10-05T12:22:19.490Z,1022.12
2022-10-05T12:27:26.634Z,1022.11
2022-10-05T12:32:33.861Z,1022.10
2022-10-05T12:37:41.075Z,1022.05
2022-10-05T12:42:48.237Z,1022.01
2022-10-05T12:47:55.444Z,1021.99
2022-10-05T12:53:02.673Z,1021.92
2022-10-05T12:58:09.844Z,1021.88
2022-10-05T13:03:17.052Z,1021.81
2022-10-05T13:08:24.333Z,1021.82
2022-10-05T13:13:31.451Z,1021.82
2022-10-05T13:18:38.626Z,1021.88
2022-10-05T13:23:45.801Z,1021.86
2022-10-05T13:28:52.992Z,1021.85
2022-10-05T13:34:00.206Z,1021.81
2022-10-05T13:39:07.440Z,1021.84
2022-10-05T13:44:14.687Z,1021.83
2022-10-05T13:49:22.008Z,1021.86
2022-10-05T13:54:29.232Z,1021.85
2022-10-05T13:59:36.395Z,1021.83
2022-10-05T14:04:43.657Z,1021.81
2022-10-05T14:09:50.932Z,1021.84
2022-10-05T14:14:58.047Z,1021.79
2022-10-05T14:20:05.215Z,1021.83
2022-10-05T14:25:12.466Z,1021.82
2022-10-05T14:30:19.624Z,1021.78
2022-10-05T14:35:26.842Z,1021.82
2022-10-05T14:40:34.109Z,1021.80
2022-10-05T14:45:41.345Z,1021.74
2022-10-05T14:50:48.448Z,1021.72
2022-10-05T14:55:55.763Z,1021.71
2022-10-05T15:01:02.949Z,1021.57
2022-10-05T15:06:10.134Z,1021.58
2022-10-05T15:11:17.499Z,1021.64
2022-10-05T15:16:24.668Z,1021.66
2022-10-05T15:21:31.783Z,1021.67
2022-10-05T15:26:39.014Z,1021.70
2022-10-05T15:31:48.653Z,1021.75
2022-10-05T15:36:55.858Z,1021.77
2022-10-05T15:42:03.124Z,1021.79
2022-10-05T15:47:11.185Z,1021.84
2022-10-05T15:52:18.392Z,1021.85
2022-10-05T15:57:25.659Z,1021.88
2022-10-05T16:02:32.851Z,1021.83
2022-10-05T16:07:40.031Z,1021.85
2022-10-05T16:12:47.227Z,1021.88
2022-10-05T16:17:54.496Z,1021.96
2022-10-05T16:23:01.725Z,1021.96
2022-10-05T16:28:24.410Z,1021.99
2022-10-05T16:33:31.077Z,1022.08
2022-10-05T16:38:38.289Z,1022.08
2022-10-05T16:43:45.553Z,1022.19
2022-10-05T16:48:52.651Z,1022.25
2022-10-05T16:53:59.876Z,1022.31
2022-10-05T16:59:07.066Z,1022.38
2022-10-05T17:04:14.304Z,1022.42
2022-10-05T17:09:21.477Z,1022.48
2022-10-05T17:14:28.697Z,1022.61
2022-10-05T17:19:35.838Z,1022.67
2022-10-05T17:24:42.997Z,1022.77
2022-10-05T17:29:50.307Z,1022.79
2022-10-05T17:34:57.413Z,1022.88
2022-10-05T17:40:04.648Z,1022.91
2022-10-05T17:45:12.091Z,1023.01
2022-10-05T17:50:19.257Z,1023.15
2022-10-05T17:55:26.467Z,1023.24
2022-10-05T18:00:33.694Z,1023.31
2022-10-05T18:05:40.870Z,1023.29
2022-10-05T18:10:48.080Z,1023.35
2022-10-05T18:15:55.391Z,1023.24
2022-10-05T18:21:02.892Z,1023.36
2022-10-05T18:26:10.269Z,1023.38
2022-10-05T18:31:17.645Z,1023.48
2022-10-05T18:36:24.754Z,1023.64
2022-10-05T18:41:32.321Z,1023.57
2022-10-05T18:46:40.069Z,1023.72
2022-10-05T18:51:50.991Z,1023.60
2022-10-05T18:56:54.759Z,1023.67
2022-10-05T19:02:02.485Z,1023.73
2022-10-05T19:07:09.965Z,1023.81
2022-10-05T19:12:17.500Z,1023.98
2022-10-05T19:17:25.138Z,1024.14
2022-10-05T19:22:32.347Z,1024.18
2022-10-05T19:27:39.537Z,1024.11
2022-10-05T19:32:47.155Z,1024.20
2022-10-05T19:37:54.447Z,1024.19
2022-10-05T19:43:01.671Z,1024.18
2022-10-05T19:48:09.236Z,1024.19
2022-10-05T19:53:16.502Z,1024.27
2022-10-05T19:58:23.793Z,1024.33
2022-10-05T20:03:31.227Z,1024.34
2022-10-05T20:08:38.613Z,1024.48
2022-10-05T20:13:45.887Z,1024.73
2022-10-05T20:18:53.261Z,1024.68
2022-10-05T20:24:00.443Z,1024.94
2022-10-05T20:29:07.633Z,1024.96
2022-10-05T20:34:14.856Z,1025.00
2022-10-05T20:39:22.086Z,1025.13
2022-10-05T20:44:29.325Z,1025.19
2022-10-05T20:49:36.564Z,1025.27
2022-10-05T20:54:43.803Z,1025.33
2022-10-05T20:59:50.974Z,1025.49
2022-10-05T21:04:58.263Z,1025.45
2022-10-05T21:10:05.379Z,1025.52
2022-10-05T21:15:12.629Z,1025.48
2022-10-05T21:20:19.788Z,1025.53
2022-10-05T21:25:26.961Z,1025.57
2022-10-05T21:30:37.346Z,1025.65
2022-10-05T21:35:44.650Z,1025.53
2022-10-05T21:40:51.681Z,1025.57
2022-10-05T21:45:58.897Z,1025.65
2022-10-05T21:51:06.137Z,1025.81
2022-10-05T21:56:13.267Z,1025.67
2022-10-05T22:01:22.848Z,1025.77
2022-10-05T22:06:27.769Z,1025.77
2022-10-05T22:11:35.011Z,1025.86
2022-10-05T22:16:42.370Z,1025.89
2022-10-05T22:21:49.598Z,1025.91
2022-10-05T22:26:56.766Z,1026.03
2022-10-05T22:32:04.020Z,1026.03
2022-10-05T22:37:11.148Z,1025.93
2022-10-05T22:42:18.348Z,1026.14
2022-10-05T22:47:25.579Z,1026.14
2022-10-05T22:52:32.877Z,1026.08
2022-10-05T22:57:40.056Z,1026.12
2022-10-05T23:02:47.299Z,1026.17
2022-10-05T23:07:54.531Z,1026.24
2022-10-05T23:13:01.966Z,1026.26
2022-10-05T23:18:09.227Z,1026.39
2022-10-05T23:23:16.548Z,1026.44
2022-10-05T23:28:23.842Z,1026.40
2022-10-05T23:33:30.995Z,1026.36
2022-10-05T23:38:38.265Z,1026.28
2022-10-05T23:43:45.425Z,1026.43
2022-10-05T23:48:52.661Z,1026.40
2022-10-05T23:53:59.872Z,1026.32
2022-10-05T23:59:06.995Z,1026.46
